Portada
METAR-TAF:

METAR-TAF

Aeroports :

Rio Branco, Acre, Brasil

latitud: 10-00S, longitud: 067-48W, altitud: 142 m

Observació

L'informe es va fer fa 37 minuts, a les 18:00 UTC
Vent 4 kt del Nord/Nord-Est
Temperatura 31°C
Humitat 59%
Pressió 1013 hPa
Visibilitat 10 km o més
Núvols disperses a una alçada de 2500 ft

METAR: SBRB 231800Z 02004KT 9999 SCT025 31/22 Q1013

Hora: 13:37 (18:37 UTC)

Pronòstic

L'informe es va fer fa 3 hores i 55 minuts, a les 14:42 UTC
Pronòstic vàlid del 23 a les 18 UTC al 24 a les 06 UTC
Vent 5 kt del Nord-Oest
Visibilitat 10 km o més
Núvols disperses a una alçada de 4000 ft
Evolucionant progressivament
l' 23 a les 22 UTC al 23 a les 24 UTC
Vent kt del Nord

TAF: SBRB 231442Z 2318/2406 31005KT 9999 SCT040 TX32/2319Z TN20/2406Z BECMG 2322/2324 00000KT RMK PHI

Observacions i pronòstics meteorològics de més de 4000 aeroports (METAR i TAF).

Les estacions disponibles són els punts grocs i vermells al mapa.

Posi el ratolí al punt desitjat per veure el nom de l'estació.

Feu clic per veure les observacions i els pronòstics meteorològics.

Per canviar el mapa: feu clic els botons verds amb una creu de color negre per apropar; al botó verd amb un guió per allunyar la imatge; o en les fletxes verdes per a mapes adjacents.


METAR-TAF: